sensor_id;sensor_type;location;lat;lon;timestamp;pressure;altitude;pressure_sealevel;temperature;humidity
27613;BME280;15036;48.094;-1.690;2023-07-13T00:01:13;101294.63;;;23.99;43.63
27613;BME280;15036;48.094;-1.690;2023-07-13T00:03:39;101298.34;;;24.20;43.43
27613;BME280;15036;48.094;-1.690;2023-07-13T00:06:07;101300.25;;;24.09;43.75
27613;BME280;15036;48.094;-1.690;2023-07-13T00:08:32;101293.25;;;23.96;43.99
27613;BME280;15036;48.094;-1.690;2023-07-13T00:10:58;101294.31;;;23.85;44.34
27613;BME280;15036;48.094;-1.690;2023-07-13T00:13:24;101297.69;;;23.92;44.30
27613;BME280;15036;48.094;-1.690;2023-07-13T00:15:49;101303.53;;;23.86;44.52
27613;BME280;15036;48.094;-1.690;2023-07-13T00:18:14;101301.47;;;23.61;44.70
27613;BME280;15036;48.094;-1.690;2023-07-13T00:20:40;101300.94;;;23.64;45.08
27613;BME280;15036;48.094;-1.690;2023-07-13T00:23:06;101296.50;;;23.73;44.57
27613;BME280;15036;48.094;-1.690;2023-07-13T00:25:32;101294.78;;;23.67;45.13
27613;BME280;15036;48.094;-1.690;2023-07-13T00:27:57;101294.81;;;23.72;44.47
27613;BME280;15036;48.094;-1.690;2023-07-13T00:30:23;101300.13;;;23.74;44.55
27613;BME280;15036;48.094;-1.690;2023-07-13T00:32:49;101295.31;;;23.54;44.81
27613;BME280;15036;48.094;-1.690;2023-07-13T00:35:15;101290.25;;;23.51;44.94
27613;BME280;15036;48.094;-1.690;2023-07-13T00:37:41;101295.03;;;23.56;44.98
27613;BME280;15036;48.094;-1.690;2023-07-13T00:40:07;101296.16;;;23.60;44.99
27613;BME280;15036;48.094;-1.690;2023-07-13T00:42:34;101288.06;;;23.58;44.89
27613;BME280;15036;48.094;-1.690;2023-07-13T00:47:41;101283.81;;;23.41;45.41
27613;BME280;15036;48.094;-1.690;2023-07-13T00:50:12;101289.16;;;23.52;45.10
27613;BME280;15036;48.094;-1.690;2023-07-13T00:52:40;101289.66;;;23.39;45.63
27613;BME280;15036;48.094;-1.690;2023-07-13T00:55:07;101285.50;;;23.47;45.38
27613;BME280;15036;48.094;-1.690;2023-07-13T00:57:34;101288.00;;;23.43;45.49
27613;BME280;15036;48.094;-1.690;2023-07-13T01:00:03;101287.28;;;23.21;46.07
27613;BME280;15036;48.094;-1.690;2023-07-13T01:02:35;101282.81;;;23.20;46.32
27613;BME280;15036;48.094;-1.690;2023-07-13T01:05:09;101273.09;;;23.27;46.04
27613;BME280;15036;48.094;-1.690;2023-07-13T01:07:35;101275.97;;;22.96;46.75
27613;BME280;15036;48.094;-1.690;2023-07-13T01:10:02;101281.31;;;23.02;46.70
27613;BME280;15036;48.094;-1.690;2023-07-13T01:12:28;101284.22;;;23.17;46.24
27613;BME280;15036;48.094;-1.690;2023-07-13T01:14:58;101290.16;;;22.89;47.18
27613;BME280;15036;48.094;-1.690;2023-07-13T01:17:23;101289.47;;;23.14;46.70
27613;BME280;15036;48.094;-1.690;2023-07-13T01:19:49;101294.75;;;23.10;46.93
27613;BME280;15036;48.094;-1.690;2023-07-13T01:22:17;101292.09;;;22.89;47.50
27613;BME280;15036;48.094;-1.690;2023-07-13T01:24:46;101292.81;;;23.16;46.67
27613;BME280;15036;48.094;-1.690;2023-07-13T01:27:14;101284.47;;;23.16;46.85
27613;BME280;15036;48.094;-1.690;2023-07-13T01:29:41;101292.97;;;23.31;46.41
27613;BME280;15036;48.094;-1.690;2023-07-13T01:32:12;101290.50;;;23.03;47.45
27613;BME280;15036;48.094;-1.690;2023-07-13T01:34:38;101290.53;;;23.08;47.09
27613;BME280;15036;48.094;-1.690;2023-07-13T01:37:08;101293.06;;;23.09;47.12
27613;BME280;15036;48.094;-1.690;2023-07-13T01:39:34;101287.50;;;23.09;47.04
27613;BME280;15036;48.094;-1.690;2023-07-13T01:41:59;101290.84;;;23.11;47.43
27613;BME280;15036;48.094;-1.690;2023-07-13T01:44:25;101297.09;;;23.28;46.78
27613;BME280;15036;48.094;-1.690;2023-07-13T01:46:51;101293.09;;;23.19;46.99
27613;BME280;15036;48.094;-1.690;2023-07-13T01:49:16;101295.94;;;23.24;47.48
27613;BME280;15036;48.094;-1.690;2023-07-13T01:51:41;101303.16;;;23.15;47.84
27613;BME280;15036;48.094;-1.690;2023-07-13T01:54:07;101294.44;;;23.07;47.93
27613;BME280;15036;48.094;-1.690;2023-07-13T01:56:32;101297.88;;;23.24;47.68
27613;BME280;15036;48.094;-1.690;2023-07-13T01:58:57;101292.00;;;23.15;47.90
27613;BME280;15036;48.094;-1.690;2023-07-13T02:01:23;101295.38;;;23.22;47.85
27613;BME280;15036;48.094;-1.690;2023-07-13T02:03:48;101297.19;;;23.02;48.41
27613;BME280;15036;48.094;-1.690;2023-07-13T02:06:13;101299.47;;;23.10;48.52
27613;BME280;15036;48.094;-1.690;2023-07-13T02:08:40;101306.66;;;23.01;48.81
27613;BME280;15036;48.094;-1.690;2023-07-13T02:11:06;101296.03;;;22.98;49.00
27613;BME280;15036;48.094;-1.690;2023-07-13T02:13:31;101298.44;;;23.21;48.42
27613;BME280;15036;48.094;-1.690;2023-07-13T02:15:56;101295.50;;;23.01;48.90
27613;BME280;15036;48.094;-1.690;2023-07-13T02:18:22;101290.78;;;23.01;48.84
27613;BME280;15036;48.094;-1.690;2023-07-13T02:20:47;101295.66;;;23.21;48.52
27613;BME280;15036;48.094;-1.690;2023-07-13T02:23:13;101293.09;;;23.19;48.67
27613;BME280;15036;48.094;-1.690;2023-07-13T02:25:38;101297.97;;;23.34;48.44
27613;BME280;15036;48.094;-1.690;2023-07-13T02:28:03;101288.25;;;23.37;48.45
27613;BME280;15036;48.094;-1.690;2023-07-13T02:30:29;101291.94;;;23.05;49.38
27613;BME280;15036;48.094;-1.690;2023-07-13T02:32:55;101290.59;;;23.13;49.25
27613;BME280;15036;48.094;-1.690;2023-07-13T02:35:21;101287.25;;;23.16;48.69
27613;BME280;15036;48.094;-1.690;2023-07-13T02:37:46;101289.66;;;23.39;48.81
27613;BME280;15036;48.094;-1.690;2023-07-13T02:40:11;101281.81;;;23.31;49.09
27613;BME280;15036;48.094;-1.690;2023-07-13T02:42:37;101285.47;;;23.42;48.46
27613;BME280;15036;48.094;-1.690;2023-07-13T02:45:02;101285.22;;;23.43;48.69
27613;BME280;15036;48.094;-1.690;2023-07-13T02:47:28;101279.91;;;23.42;48.81
27613;BME280;15036;48.094;-1.690;2023-07-13T02:49:53;101284.66;;;23.41;48.73
27613;BME280;15036;48.094;-1.690;2023-07-13T02:52:19;101281.00;;;22.99;49.99
27613;BME280;15036;48.094;-1.690;2023-07-13T02:54:44;101287.19;;;23.06;49.59
27613;BME280;15036;48.094;-1.690;2023-07-13T02:57:10;101283.19;;;23.34;49.14
27613;BME280;15036;48.094;-1.690;2023-07-13T02:59:35;101293.94;;;23.15;49.55
27613;BME280;15036;48.094;-1.690;2023-07-13T03:02:02;101289.22;;;23.20;49.61
27613;BME280;15036;48.094;-1.690;2023-07-13T03:04:28;101280.25;;;23.08;49.74
27613;BME280;15036;48.094;-1.690;2023-07-13T03:06:53;101275.59;;;23.24;49.20
27613;BME280;15036;48.094;-1.690;2023-07-13T03:09:22;101283.31;;;23.12;49.80
27613;BME280;15036;48.094;-1.690;2023-07-13T03:11:48;101282.78;;;23.15;49.77
27613;BME280;15036;48.094;-1.690;2023-07-13T03:14:13;101279.09;;;23.41;49.49
27613;BME280;15036;48.094;-1.690;2023-07-13T03:16:38;101286.59;;;23.41;49.27
27613;BME280;15036;48.094;-1.690;2023-07-13T03:19:04;101283.53;;;23.37;49.31
27613;BME280;15036;48.094;-1.690;2023-07-13T03:21:30;101283.03;;;23.08;49.96
27613;BME280;15036;48.094;-1.690;2023-07-13T03:23:56;101279.25;;;23.29;49.89
27613;BME280;15036;48.094;-1.690;2023-07-13T03:26:21;101282.53;;;23.16;49.98
27613;BME280;15036;48.094;-1.690;2023-07-13T03:28:47;101278.66;;;23.27;49.80
27613;BME280;15036;48.094;-1.690;2023-07-13T03:31:17;101284.09;;;23.39;49.46
27613;BME280;15036;48.094;-1.690;2023-07-13T03:33:43;101290.22;;;23.41;49.33
27613;BME280;15036;48.094;-1.690;2023-07-13T03:36:25;101286.88;;;23.39;49.50
27613;BME280;15036;48.094;-1.690;2023-07-13T03:38:57;101282.47;;;23.53;49.21
27613;BME280;15036;48.094;-1.690;2023-07-13T03:41:24;101286.75;;;23.24;49.64
27613;BME280;15036;48.094;-1.690;2023-07-13T03:43:50;101281.03;;;23.46;49.05
27613;BME280;15036;48.094;-1.690;2023-07-13T03:46:16;101285.25;;;23.48;49.18
27613;BME280;15036;48.094;-1.690;2023-07-13T03:48:45;101289.16;;;23.47;48.95
27613;BME280;15036;48.094;-1.690;2023-07-13T03:51:11;101294.97;;;23.41;49.33
27613;BME280;15036;48.094;-1.690;2023-07-13T03:53:39;101296.09;;;23.08;49.88
27613;BME280;15036;48.094;-1.690;2023-07-13T03:56:05;101299.25;;;23.16;49.58
27613;BME280;15036;48.094;-1.690;2023-07-13T03:58:34;101300.53;;;23.41;49.15
27613;BME280;15036;48.094;-1.690;2023-07-13T04:01:01;101299.38;;;23.00;50.19
27613;BME280;15036;48.094;-1.690;2023-07-13T04:03:28;101299.31;;;23.26;49.52
27613;BME280;15036;48.094;-1.690;2023-07-13T04:05:55;101310.94;;;23.13;50.00
27613;BME280;15036;48.094;-1.690;2023-07-13T04:08:28;101301.53;;;23.29;49.51
27613;BME280;15036;48.094;-1.690;2023-07-13T04:10:55;101309.31;;;23.22;49.65
27613;BME280;15036;48.094;-1.690;2023-07-13T04:13:20;101308.50;;;23.27;49.62
27613;BME280;15036;48.094;-1.690;2023-07-13T04:15:46;101318.50;;;23.23;50.17
27613;BME280;15036;48.094;-1.690;2023-07-13T04:18:11;101322.69;;;23.25;49.76
27613;BME280;15036;48.094;-1.690;2023-07-13T04:20:36;101319.41;;;23.34;49.59
27613;BME280;15036;48.094;-1.690;2023-07-13T04:23:02;101319.75;;;23.42;49.48
27613;BME280;15036;48.094;-1.690;2023-07-13T04:25:27;101322.72;;;23.31;49.86
27613;BME280;15036;48.094;-1.690;2023-07-13T04:27:53;101322.50;;;23.32;49.70
27613;BME280;15036;48.094;-1.690;2023-07-13T04:30:20;101326.97;;;23.33;50.05
27613;BME280;15036;48.094;-1.690;2023-07-13T04:32:45;101324.53;;;23.47;49.60
27613;BME280;15036;48.094;-1.690;2023-07-13T04:35:11;101328.97;;;23.48;49.61
27613;BME280;15036;48.094;-1.690;2023-07-13T04:37:36;101321.41;;;23.38;50.03
27613;BME280;15036;48.094;-1.690;2023-07-13T04:40:03;101322.38;;;23.17;50.55
27613;BME280;15036;48.094;-1.690;2023-07-13T04:42:29;101320.94;;;23.09;50.63
27613;BME280;15036;48.094;-1.690;2023-07-13T04:44:55;101325.47;;;23.25;50.30
27613;BME280;15036;48.094;-1.690;2023-07-13T04:47:21;101326.16;;;23.01;51.22
27613;BME280;15036;48.094;-1.690;2023-07-13T04:49:46;101317.22;;;23.36;50.34
27613;BME280;15036;48.094;-1.690;2023-07-13T04:52:11;101325.22;;;23.27;50.40
27613;BME280;15036;48.094;-1.690;2023-07-13T04:54:37;101323.13;;;23.44;50.13
27613;BME280;15036;48.094;-1.690;2023-07-13T04:57:06;101334.31;;;23.49;50.04
27613;BME280;15036;48.094;-1.690;2023-07-13T04:59:32;101326.81;;;23.55;49.84
27613;BME280;15036;48.094;-1.690;2023-07-13T05:01:58;101342.91;;;23.48;50.04
27613;BME280;15036;48.094;-1.690;2023-07-13T05:04:23;101342.13;;;23.52;50.14
27613;BME280;15036;48.094;-1.690;2023-07-13T05:06:49;101339.03;;;23.49;50.05
27613;BME280;15036;48.094;-1.690;2023-07-13T05:09:14;101344.59;;;23.07;50.92
27613;BME280;15036;48.094;-1.690;2023-07-13T05:11:40;101344.19;;;23.30;50.74
27613;BME280;15036;48.094;-1.690;2023-07-13T05:14:05;101347.63;;;23.42;50.41
27613;BME280;15036;48.094;-1.690;2023-07-13T05:16:30;101345.06;;;23.36;50.80
27613;BME280;15036;48.094;-1.690;2023-07-13T05:18:57;101345.94;;;23.36;50.54
27613;BME280;15036;48.094;-1.690;2023-07-13T05:21:22;101352.78;;;23.65;49.87
27613;BME280;15036;48.094;-1.690;2023-07-13T05:23:48;101340.53;;;23.66;49.80
27613;BME280;15036;48.094;-1.690;2023-07-13T05:26:13;101354.81;;;23.80;49.68
27613;BME280;15036;48.094;-1.690;2023-07-13T05:28:39;101362.84;;;23.66;49.73
27613;BME280;15036;48.094;-1.690;2023-07-13T05:31:07;101362.50;;;23.58;50.20
27613;BME280;15036;48.094;-1.690;2023-07-13T05:33:33;101363.97;;;23.28;51.06
27613;BME280;15036;48.094;-1.690;2023-07-13T05:35:58;101368.22;;;23.36;50.85
27613;BME280;15036;48.094;-1.690;2023-07-13T05:38:25;101369.06;;;23.37;50.91
27613;BME280;15036;48.094;-1.690;2023-07-13T05:40:52;101371.38;;;23.50;50.38
27613;BME280;15036;48.094;-1.690;2023-07-13T05:43:18;101376.63;;;23.41;50.56
27613;BME280;15036;48.094;-1.690;2023-07-13T05:45:43;101373.28;;;23.44;50.74
27613;BME280;15036;48.094;-1.690;2023-07-13T05:48:09;101380.31;;;23.52;50.56
27613;BME280;15036;48.094;-1.690;2023-07-13T05:50:34;101385.38;;;23.60;50.40
27613;BME280;15036;48.094;-1.690;2023-07-13T05:53:00;101391.16;;;23.48;50.37
27613;BME280;15036;48.094;-1.690;2023-07-13T05:55:25;101381.69;;;23.49;50.40
27613;BME280;15036;48.094;-1.690;2023-07-13T05:57:50;101385.41;;;23.28;50.90
27613;BME280;15036;48.094;-1.690;2023-07-13T06:00:16;101389.16;;;23.44;50.59
27613;BME280;15036;48.094;-1.690;2023-07-13T06:02:42;101392.31;;;23.57;50.35
27613;BME280;15036;48.094;-1.690;2023-07-13T06:05:08;101394.38;;;23.72;50.09
27613;BME280;15036;48.094;-1.690;2023-07-13T06:07:33;101402.16;;;23.70;50.13
27613;BME280;15036;48.094;-1.690;2023-07-13T06:09:58;101402.16;;;23.65;50.10
27613;BME280;15036;48.094;-1.690;2023-07-13T06:12:25;101407.91;;;23.53;50.34
27613;BME280;15036;48.094;-1.690;2023-07-13T06:14:50;101406.44;;;23.87;49.97
27613;BME280;15036;48.094;-1.690;2023-07-13T06:17:15;101397.00;;;23.93;49.60
27613;BME280;15036;48.094;-1.690;2023-07-13T06:19:41;101405.84;;;23.80;50.19
27613;BME280;15036;48.094;-1.690;2023-07-13T06:22:06;101399.81;;;23.98;49.57
27613;BME280;15036;48.094;-1.690;2023-07-13T06:24:31;101403.53;;;24.14;49.30
27613;BME280;15036;48.094;-1.690;2023-07-13T06:26:57;101398.19;;;24.02;49.64
27613;BME280;15036;48.094;-1.690;2023-07-13T06:29:22;101411.63;;;24.21;49.17
27613;BME280;15036;48.094;-1.690;2023-07-13T06:31:47;101415.16;;;24.01;49.69
27613;BME280;15036;48.094;-1.690;2023-07-13T06:34:13;101416.59;;;24.03;49.44
27613;BME280;15036;48.094;-1.690;2023-07-13T06:36:38;101419.19;;;24.25;49.23
27613;BME280;15036;48.094;-1.690;2023-07-13T06:39:04;101420.00;;;24.16;49.30
27613;BME280;15036;48.094;-1.690;2023-07-13T06:41:29;101422.84;;;24.26;49.44
27613;BME280;15036;48.094;-1.690;2023-07-13T06:43:56;101421.19;;;24.35;49.04
27613;BME280;15036;48.094;-1.690;2023-07-13T06:46:22;101416.69;;;24.24;49.70
27613;BME280;15036;48.094;-1.690;2023-07-13T06:48:47;101418.41;;;24.40;49.19
27613;BME280;15036;48.094;-1.690;2023-07-13T06:51:13;101425.72;;;24.56;48.57
27613;BME280;15036;48.094;-1.690;2023-07-13T06:53:39;101425.44;;;24.62;48.57
27613;BME280;15036;48.094;-1.690;2023-07-13T06:56:04;101421.84;;;24.67;48.47
27613;BME280;15036;48.094;-1.690;2023-07-13T06:58:30;101428.75;;;24.39;49.02
27613;BME280;15036;48.094;-1.690;2023-07-13T07:00:56;101425.16;;;24.59;48.65
27613;BME280;15036;48.094;-1.690;2023-07-13T07:03:21;101427.56;;;24.25;49.48
27613;BME280;15036;48.094;-1.690;2023-07-13T07:05:47;101427.69;;;24.55;48.69
27613;BME280;15036;48.094;-1.690;2023-07-13T07:08:12;101423.31;;;24.94;48.03
27613;BME280;15036;48.094;-1.690;2023-07-13T07:10:38;101429.16;;;24.88;47.86
27613;BME280;15036;48.094;-1.690;2023-07-13T07:13:03;101442.28;;;24.82;48.33
27613;BME280;15036;48.094;-1.690;2023-07-13T07:15:29;101443.91;;;24.68;48.22
27613;BME280;15036;48.094;-1.690;2023-07-13T07:17:55;101440.72;;;23.83;50.32
27613;BME280;15036;48.094;-1.690;2023-07-13T07:20:21;101457.84;;;24.63;48.58
27613;BME280;15036;48.094;-1.690;2023-07-13T07:22:46;101455.81;;;24.39;49.08
27613;BME280;15036;48.094;-1.690;2023-07-13T07:25:12;101454.16;;;24.43;48.94
27613;BME280;15036;48.094;-1.690;2023-07-13T07:27:38;101459.81;;;24.63;48.77
27613;BME280;15036;48.094;-1.690;2023-07-13T07:30:04;101462.69;;;24.83;48.27
27613;BME280;15036;48.094;-1.690;2023-07-13T07:32:31;101467.75;;;25.01;48.16
27613;BME280;15036;48.094;-1.690;2023-07-13T07:34:59;101461.00;;;24.82;48.20
27613;BME280;15036;48.094;-1.690;2023-07-13T07:37:25;101462.16;;;25.06;47.64
27613;BME280;15036;48.094;-1.690;2023-07-13T07:39:50;101471.94;;;24.93;48.12
27613;BME280;15036;48.094;-1.690;2023-07-13T07:42:16;101472.00;;;25.49;46.84
27613;BME280;15036;48.094;-1.690;2023-07-13T07:44:41;101480.66;;;25.37;46.90
27613;BME280;15036;48.094;-1.690;2023-07-13T07:47:07;101473.94;;;25.63;46.61
27613;BME280;15036;48.094;-1.690;2023-07-13T07:49:35;101473.06;;;25.03;47.38
27613;BME280;15036;48.094;-1.690;2023-07-13T07:52:01;101470.25;;;25.98;45.86
27613;BME280;15036;48.094;-1.690;2023-07-13T07:54:26;101477.53;;;25.89;45.83
27613;BME280;15036;48.094;-1.690;2023-07-13T07:56:52;101467.13;;;26.20;45.02
27613;BME280;15036;48.094;-1.690;2023-07-13T07:59:17;101467.91;;;26.35;44.70
27613;BME280;15036;48.094;-1.690;2023-07-13T08:01:42;101460.50;;;26.54;44.31
27613;BME280;15036;48.094;-1.690;2023-07-13T08:04:08;101464.72;;;26.57;44.27
27613;BME280;15036;48.094;-1.690;2023-07-13T08:06:34;101471.75;;;26.44;44.71
27613;BME280;15036;48.094;-1.690;2023-07-13T08:09:00;101464.94;;;26.71;44.38
27613;BME280;15036;48.094;-1.690;2023-07-13T08:11:26;101464.53;;;26.38;44.63
27613;BME280;15036;48.094;-1.690;2023-07-13T08:13:51;101472.47;;;25.91;45.84
27613;BME280;15036;48.094;-1.690;2023-07-13T08:16:17;101472.75;;;26.10;45.21
27613;BME280;15036;48.094;-1.690;2023-07-13T08:18:42;101474.63;;;26.34;44.93
27613;BME280;15036;48.094;-1.690;2023-07-13T08:21:08;101475.50;;;26.89;43.72
27613;BME280;15036;48.094;-1.690;2023-07-13T08:23:34;101466.09;;;27.08;43.26
27613;BME280;15036;48.094;-1.690;2023-07-13T08:26:00;101466.47;;;26.43;44.05
27613;BME280;15036;48.094;-1.690;2023-07-13T08:28:29;101464.19;;;27.04;42.74
27613;BME280;15036;48.094;-1.690;2023-07-13T08:31:00;101464.03;;;26.80;43.24
27613;BME280;15036;48.094;-1.690;2023-07-13T08:33:25;101461.94;;;25.43;45.10
27613;BME280;15036;48.094;-1.690;2023-07-13T08:35:51;101459.94;;;25.68;44.92
27613;BME280;15036;48.094;-1.690;2023-07-13T08:38:17;101457.91;;;26.04;44.69
27613;BME280;15036;48.094;-1.690;2023-07-13T08:40:43;101459.94;;;25.53;45.24
27613;BME280;15036;48.094;-1.690;2023-07-13T08:43:16;101458.56;;;23.82;48.72
27613;BME280;15036;48.094;-1.690;2023-07-13T08:45:52;101449.88;;;25.37;45.22
27613;BME280;15036;48.094;-1.690;2023-07-13T08:48:52;101462.19;;;25.56;44.41
27613;BME280;15036;48.094;-1.690;2023-07-13T08:53:59;101452.66;;;25.32;43.21
27613;BME280;15036;48.094;-1.690;2023-07-13T08:56:27;101461.50;;;24.69;43.71
27613;BME280;15036;48.094;-1.690;2023-07-13T08:59:14;101458.47;;;24.75;43.06
27613;BME280;15036;48.094;-1.690;2023-07-13T09:02:04;101456.88;;;25.65;41.59
27613;BME280;15036;48.094;-1.690;2023-07-13T09:04:45;101449.59;;;25.39;41.13
27613;BME280;15036;48.094;-1.690;2023-07-13T09:10:28;101456.59;;;25.61;40.79
27613;BME280;15036;48.094;-1.690;2023-07-13T09:15:30;101446.50;;;25.75;38.98
27613;BME280;15036;48.094;-1.690;2023-07-13T09:18:01;101438.31;;;26.04;37.59
27613;BME280;15036;48.094;-1.690;2023-07-13T09:20:31;101436.44;;;25.69;38.02
27613;BME280;15036;48.094;-1.690;2023-07-13T09:23:03;101436.19;;;26.45;37.18
27613;BME280;15036;48.094;-1.690;2023-07-13T09:25:32;101427.97;;;26.05;38.34
27613;BME280;15036;48.094;-1.690;2023-07-13T09:28:18;101443.59;;;27.18;36.83
27613;BME280;15036;48.094;-1.690;2023-07-13T09:33:51;101438.38;;;26.58;36.38
27613;BME280;15036;48.094;-1.690;2023-07-13T09:36:19;101446.34;;;26.36;36.97
27613;BME280;15036;48.094;-1.690;2023-07-13T09:38:45;101453.09;;;26.30;35.56
27613;BME280;15036;48.094;-1.690;2023-07-13T09:41:37;101443.94;;;26.68;35.39
27613;BME280;15036;48.094;-1.690;2023-07-13T09:46:36;101450.94;;;26.66;34.80
27613;BME280;15036;48.094;-1.690;2023-07-13T09:49:01;101451.94;;;26.31;35.54
27613;BME280;15036;48.094;-1.690;2023-07-13T09:51:27;101448.16;;;27.09;34.24
27613;BME280;15036;48.094;-1.690;2023-07-13T09:53:53;101447.56;;;27.12;34.69
27613;BME280;15036;48.094;-1.690;2023-07-13T09:56:24;101451.97;;;26.26;36.08
27613;BME280;15036;48.094;-1.690;2023-07-13T09:58:50;101452.00;;;27.18;34.37
27613;BME280;15036;48.094;-1.690;2023-07-13T10:01:15;101449.13;;;27.91;33.35
27613;BME280;15036;48.094;-1.690;2023-07-13T10:03:52;101452.91;;;27.48;33.49
27613;BME280;15036;48.094;-1.690;2023-07-13T10:06:21;101449.38;;;28.42;31.77
27613;BME280;15036;48.094;-1.690;2023-07-13T10:08:52;101449.41;;;28.37;31.66
27613;BME280;15036;48.094;-1.690;2023-07-13T10:11:19;101443.56;;;28.33;31.56
27613;BME280;15036;48.094;-1.690;2023-07-13T10:14:01;101454.06;;;29.07;31.40
27613;BME280;15036;48.094;-1.690;2023-07-13T10:16:34;101444.59;;;28.42;31.62
27613;BME280;15036;48.094;-1.690;2023-07-13T10:19:05;101448.22;;;28.43;32.03
27613;BME280;15036;48.094;-1.690;2023-07-13T10:21:50;101454.13;;;29.39;30.91
27613;BME280;15036;48.094;-1.690;2023-07-13T10:24:37;101456.44;;;29.19;30.90
27613;BME280;15036;48.094;-1.690;2023-07-13T10:27:28;101461.34;;;28.28;31.53
27613;BME280;15036;48.094;-1.690;2023-07-13T10:30:12;101456.53;;;28.29;30.58
27613;BME280;15036;48.094;-1.690;2023-07-13T10:32:39;101457.13;;;28.92;29.66
27613;BME280;15036;48.094;-1.690;2023-07-13T10:35:05;101451.44;;;29.48;29.41
27613;BME280;15036;48.094;-1.690;2023-07-13T10:40:18;101447.97;;;27.92;31.89
27613;BME280;15036;48.094;-1.690;2023-07-13T10:42:47;101455.13;;;28.55;31.13
27613;BME280;15036;48.094;-1.690;2023-07-13T10:45:23;101440.41;;;29.97;28.57
27613;BME280;15036;48.094;-1.690;2023-07-13T10:47:51;101452.94;;;29.27;28.59
27613;BME280;15036;48.094;-1.690;2023-07-13T10:50:23;101459.88;;;29.48;28.33
27613;BME280;15036;48.094;-1.690;2023-07-13T10:53:02;101448.84;;;29.19;28.29
27613;BME280;15036;48.094;-1.690;2023-07-13T10:58:12;101439.19;;;30.17;26.95
27613;BME280;15036;48.094;-1.690;2023-07-13T11:01:14;101455.97;;;29.62;27.85
27613;BME280;15036;48.094;-1.690;2023-07-13T11:06:15;101458.31;;;27.39;32.02
27613;BME280;15036;48.094;-1.690;2023-07-13T11:21:26;101455.09;;;29.48;28.81
27613;BME280;15036;48.094;-1.690;2023-07-13T11:31:41;101425.72;;;30.54;27.41
27613;BME280;15036;48.094;-1.690;2023-07-13T11:34:23;101424.78;;;30.81;27.70
27613;BME280;15036;48.094;-1.690;2023-07-13T11:36:51;101427.94;;;30.30;27.81
27613;BME280;15036;48.094;-1.690;2023-07-13T11:39:21;101436.56;;;30.97;27.24
27613;BME280;15036;48.094;-1.690;2023-07-13T11:41:54;101434.72;;;30.78;27.12
27613;BME280;15036;48.094;-1.690;2023-07-13T11:44:23;101439.41;;;28.91;29.72
27613;BME280;15036;48.094;-1.690;2023-07-13T11:47:17;101443.00;;;29.80;28.38
27613;BME280;15036;48.094;-1.690;2023-07-13T11:49:49;101441.41;;;29.74;28.99
27613;BME280;15036;48.094;-1.690;2023-07-13T11:52:21;101445.50;;;30.63;27.97
27613;BME280;15036;48.094;-1.690;2023-07-13T11:54:55;101443.75;;;30.53;28.00
27613;BME280;15036;48.094;-1.690;2023-07-13T11:57:25;101440.91;;;30.67;27.68
27613;BME280;15036;48.094;-1.690;2023-07-13T11:59:53;101449.50;;;29.62;29.45
27613;BME280;15036;48.094;-1.690;2023-07-13T12:02:29;101437.97;;;28.94;30.66
27613;BME280;15036;48.094;-1.690;2023-07-13T12:04:57;101438.97;;;30.54;28.90
27613;BME280;15036;48.094;-1.690;2023-07-13T12:07:23;101435.41;;;29.94;29.66
27613;BME280;15036;48.094;-1.690;2023-07-13T12:09:48;101430.53;;;30.40;28.86
27613;BME280;15036;48.094;-1.690;2023-07-13T12:12:22;101431.97;;;30.51;28.47
27613;BME280;15036;48.094;-1.690;2023-07-13T12:14:51;101436.31;;;31.07;28.29
27613;BME280;15036;48.094;-1.690;2023-07-13T12:17:24;101426.44;;;30.96;28.29
27613;BME280;15036;48.094;-1.690;2023-07-13T12:19:52;101422.28;;;31.15;27.71
27613;BME280;15036;48.094;-1.690;2023-07-13T12:22:19;101426.75;;;30.94;27.74
27613;BME280;15036;48.094;-1.690;2023-07-13T12:24:46;101417.81;;;30.65;28.59
27613;BME280;15036;48.094;-1.690;2023-07-13T12:27:27;101429.06;;;29.70;29.73
27613;BME280;15036;48.094;-1.690;2023-07-13T12:30:00;101417.78;;;30.29;28.69
27613;BME280;15036;48.094;-1.690;2023-07-13T12:32:27;101422.91;;;28.85;30.35
27613;BME280;15036;48.094;-1.690;2023-07-13T12:34:54;101421.84;;;28.99;30.26
27613;BME280;15036;48.094;-1.690;2023-07-13T12:37:20;101426.25;;;28.68;31.42
27613;BME280;15036;48.094;-1.690;2023-07-13T12:39:48;101418.19;;;29.50;30.11
27613;BME280;15036;48.094;-1.690;2023-07-13T12:42:27;101412.03;;;29.80;29.82
27613;BME280;15036;48.094;-1.690;2023-07-13T12:44:59;101410.91;;;29.49;30.69
27613;BME280;15036;48.094;-1.690;2023-07-13T12:47:27;101419.94;;;28.76;31.56
27613;BME280;15036;48.094;-1.690;2023-07-13T12:49:59;101408.41;;;30.07;29.99
27613;BME280;15036;48.094;-1.690;2023-07-13T12:52:34;101402.44;;;29.81;30.64
27613;BME280;15036;48.094;-1.690;2023-07-13T12:55:15;101413.19;;;30.33;29.41
27613;BME280;15036;48.094;-1.690;2023-07-13T12:57:53;101410.78;;;30.00;29.89
27613;BME280;15036;48.094;-1.690;2023-07-13T13:02:51;101400.97;;;29.97;29.83
27613;BME280;15036;48.094;-1.690;2023-07-13T13:05:17;101412.16;;;29.56;30.80
27613;BME280;15036;48.094;-1.690;2023-07-13T13:07:43;101395.88;;;31.33;28.13
27613;BME280;15036;48.094;-1.690;2023-07-13T13:10:12;101397.59;;;31.21;28.44
27613;BME280;15036;48.094;-1.690;2023-07-13T13:12:39;101397.25;;;31.67;27.92
27613;BME280;15036;48.094;-1.690;2023-07-13T13:15:04;101404.25;;;31.69;27.56
27613;BME280;15036;48.094;-1.690;2023-07-13T13:17:32;101404.69;;;31.93;27.25
27613;BME280;15036;48.094;-1.690;2023-07-13T13:19:57;101400.63;;;32.90;26.28
27613;BME280;15036;48.094;-1.690;2023-07-13T13:22:23;101410.81;;;30.76;28.69
27613;BME280;15036;48.094;-1.690;2023-07-13T13:24:48;101393.63;;;32.14;27.88
27613;BME280;15036;48.094;-1.690;2023-07-13T13:27:19;101395.97;;;31.28;28.25
27613;BME280;15036;48.094;-1.690;2023-07-13T13:29:46;101395.41;;;32.01;27.17
27613;BME280;15036;48.094;-1.690;2023-07-13T13:32:14;101401.75;;;31.98;26.85